Albion, Ohio
Current Conditions -  °F | °C
As of 4:56 AM on Thursday 18 Dec 2014 (Local Time) from KBJJ Reporting Station
Overcast Overcast  
Wind Chill: 18°   Ceiling: 2200
Heat Index: 27°   Visibility: 10mi
Dew Point: 21°   Wind: 9mph
Humidity: 78%   Direction: 280°W
Pressure: 30.19"   Gusts: NA
Location:  40.9441°N, 82.1006°W
Report Text: KBJJ 180956Z AUTO 28008KT 10SM OVC022 M03/M06 A3019 RMK AO2 SLP238 T10281061 TSNO
Loading
Personal Weather Stations






























Interactive Weather Map New forecast layout! Learn more

10-Day Weather Forecast

Advertisements
Track Severe Weather on mobile